Time;durP1;ratioP1;P1;durP2;ratioP2;P2;SDS_P1;SDS_P2;PMS_P1;PMS_P2;Temp;Humidity;BMP_temperature;BMP_pressure;BME280_temperature;BME280_humidity;BME280_pressure;Samples;Min_cycle;Max_cycle;Signal;HPM_P1;HPM_P2
2023/05/12 00:01:59;;;;;;;1.80;1.70;;;;;;;;;;4998000;28;20275;-80
2023/05/12 00:04:28;;;;;;;1.70;1.60;;;;;;;;;;4997839;28;20475;-81
2023/05/12 00:06:55;;;;;;;1.67;1.48;;;;;;;;;;4997399;28;20235;-81
2023/05/12 00:09:22;;;;;;;1.10;1.10;;;;;;;;;;4997880;28;20210;-80
2023/05/12 00:11:50;;;;;;;1.60;1.50;;;;;;;;;;4998532;28;20235;-81
2023/05/12 00:14:18;;;;;;;1.40;1.30;;;;;;;;;;4998093;28;20299;-81
2023/05/12 00:16:50;;;;;;;1.33;1.23;;;;;;;;;;4997492;28;20266;-80
2023/05/12 00:19:17;;;;;;;1.33;1.23;;;;;;;;;;4997102;28;20208;-81
2023/05/12 00:21:46;;;;;;;1.23;1.10;;;;;;;;;;4997599;28;20204;-81
2023/05/12 00:24:15;;;;;;;2.40;1.50;;;;;;;;;;4996881;28;20207;-81
2023/05/12 00:26:42;;;;;;;1.50;1.40;;;;;;;;;;4997272;28;20677;-81
2023/05/12 00:29:09;;;;;;;1.25;1.15;;;;;;;;;;4996891;28;20222;-81
2023/05/12 00:31:37;;;;;;;1.20;1.20;;;;;;;;;;4997592;28;20204;-81
2023/05/12 00:34:04;;;;;;;0.93;0.93;;;;;;;;;;4997137;28;20469;-80
2023/05/12 00:36:32;;;;;;;0.90;0.90;;;;;;;;;;4997476;28;20771;-78
2023/05/12 00:39:01;;;;;;;1.00;1.00;;;;;;;;;;4996797;28;20294;-81
2023/05/12 00:41:28;;;;;;;1.33;1.33;;;;;;;;;;4997368;28;20204;-81
2023/05/12 00:43:56;;;;;;;1.38;1.27;;;;;;;;;;4997056;28;20206;-79
2023/05/12 00:46:23;;;;;;;1.00;1.00;;;;;;;;;;4997398;28;20253;-78
2023/05/12 00:48:51;;;;;;;1.10;1.10;;;;;;;;;;4996740;28;20239;-81
2023/05/12 00:51:18;;;;;;;1.33;1.23;;;;;;;;;;4996391;28;20267;-79
2023/05/12 00:53:46;;;;;;;1.60;1.50;;;;;;;;;;4995626;28;20267;-79
2023/05/12 00:56:16;;;;;;;1.08;1.08;;;;;;;;;;4995661;28;20220;-78
2023/05/12 00:58:44;;;;;;;1.27;1.27;;;;;;;;;;4998330;28;20236;-80
2023/05/12 01:01:12;;;;;;;0.90;0.90;;;;;;;;;;4997723;28;20204;-80
2023/05/12 01:03:39;;;;;;;2.28;1.13;;;;;;;;;;4996572;28;20277;-80
2023/05/12 01:06:12;;;;;;;1.20;1.10;;;;;;;;;;4996241;28;20233;-80
2023/05/12 01:08:42;;;;;;;1.00;1.00;;;;;;;;;;4996286;28;20287;-81
2023/05/12 01:11:09;;;;;;;0.88;0.88;;;;;;;;;;4995717;28;20204;-81
2023/05/12 01:13:39;;;;;;;0.80;0.80;;;;;;;;;;4995910;28;20298;-80
2023/05/12 01:16:09;;;;;;;1.02;1.00;;;;;;;;;;4996094;28;20286;-81
2023/05/12 01:18:38;;;;;;;1.02;0.77;;;;;;;;;;4995556;28;20579;-80
2023/05/12 01:21:06;;;;;;;0.90;0.90;;;;;;;;;;4995680;28;20203;-79
2023/05/12 01:23:37;;;;;;;1.00;1.00;;;;;;;;;;4995087;28;20645;-79
2023/05/12 01:26:08;;;;;;;0.90;0.90;;;;;;;;;;4995837;28;20584;-81
2023/05/12 01:28:36;;;;;;;1.20;1.10;;;;;;;;;;4994804;28;20730;-80
2023/05/12 01:31:04;;;;;;;0.90;0.90;;;;;;;;;;4995147;28;20206;-80
2023/05/12 01:33:32;;;;;;;1.27;1.17;;;;;;;;;;4994730;28;20212;-78
2023/05/12 01:35:59;;;;;;;0.90;0.90;;;;;;;;;;4994462;28;20231;-80
2023/05/12 01:38:27;;;;;;;1.02;1.02;;;;;;;;;;4994466;28;20290;-80
2023/05/12 01:40:55;;;;;;;0.73;0.73;;;;;;;;;;4995172;28;20226;-79
2023/05/12 01:43:24;;;;;;;0.80;0.80;;;;;;;;;;4995070;28;20203;-80
2023/05/12 01:45:51;;;;;;;0.93;0.93;;;;;;;;;;4994951;28;20314;-81
2023/05/12 01:48:18;;;;;;;0.90;0.90;;;;;;;;;;4994705;28;20707;-79
2023/05/12 01:50:46;;;;;;;1.23;1.23;;;;;;;;;;4994744;28;20294;-80
2023/05/12 01:53:13;;;;;;;1.10;1.10;;;;;;;;;;4994930;28;20295;-81
2023/05/12 01:55:41;;;;;;;1.70;1.60;;;;;;;;;;4994226;28;20314;-80
2023/05/12 01:58:08;;;;;;;0.90;0.90;;;;;;;;;;4994526;28;20453;-80
2023/05/12 02:00:37;;;;;;;1.60;1.50;;;;;;;;;;4993938;28;20295;-81
2023/05/12 02:03:05;;;;;;;0.90;0.90;;;;;;;;;;4994614;28;20210;-81
2023/05/12 02:05:32;;;;;;;1.02;1.02;;;;;;;;;;4994285;28;20208;-80
2023/05/12 02:08:00;;;;;;;0.90;0.90;;;;;;;;;;5008754;28;20230;-80
2023/05/12 02:10:27;;;;;;;1.10;1.10;;;;;;;;;;5013210;28;20670;-78
2023/05/12 02:12:55;;;;;;;1.08;1.08;;;;;;;;;;5013995;28;20207;-81
2023/05/12 02:15:22;;;;;;;1.85;1.73;;;;;;;;;;5013749;28;20306;-81
2023/05/12 02:17:53;;;;;;;1.23;1.17;;;;;;;;;;5013252;28;20682;-79
2023/05/12 02:20:20;;;;;;;1.27;1.17;;;;;;;;;;5013622;28;20265;-80
2023/05/12 02:22:48;;;;;;;1.75;1.60;;;;;;;;;;5013776;28;20693;-79
2023/05/12 02:25:15;;;;;;;1.67;1.58;;;;;;;;;;5013497;28;20302;-80
2023/05/12 02:27:43;;;;;;;0.90;0.90;;;;;;;;;;5012309;28;20237;-78
2023/05/12 02:30:11;;;;;;;1.48;1.38;;;;;;;;;;5013511;28;20199;-80
2023/05/12 02:32:39;;;;;;;1.33;1.33;;;;;;;;;;5013220;28;20200;-80
2023/05/12 02:35:09;;;;;;;1.30;1.30;;;;;;;;;;5013488;28;20230;-79
2023/05/12 02:37:37;;;;;;;1.52;1.42;;;;;;;;;;5001748;28;20267;-79
2023/05/12 02:40:06;;;;;;;1.73;1.63;;;;;;;;;;4993105;28;20203;-81
2023/05/12 02:42:37;;;;;;;1.55;1.45;;;;;;;;;;4993638;28;20239;-78
2023/05/12 02:45:05;;;;;;;3.15;1.45;;;;;;;;;;4993675;28;20210;-79
2023/05/12 02:47:32;;;;;;;1.80;1.70;;;;;;;;;;4992893;28;20242;-80
2023/05/12 02:50:00;;;;;;;3.53;2.50;;;;;;;;;;4993121;28;20320;-78
2023/05/12 02:52:29;;;;;;;2.15;1.98;;;;;;;;;;4993413;28;20192;-79
2023/05/12 02:54:56;;;;;;;2.72;2.53;;;;;;;;;;4993468;28;20291;-79
2023/05/12 02:57:26;;;;;;;1.67;1.58;;;;;;;;;;4993378;28;20575;-80
2023/05/12 02:59:53;;;;;;;1.92;1.80;;;;;;;;;;4993014;28;20210;-79
2023/05/12 03:02:21;;;;;;;1.35;1.30;;;;;;;;;;4993386;28;20212;-79
2023/05/12 03:04:48;;;;;;;4.72;1.85;;;;;;;;;;4992601;28;20593;-78
2023/05/12 03:07:16;;;;;;;1.73;1.63;;;;;;;;;;4993109;28;20223;-80
2023/05/12 03:09:44;;;;;;;1.98;1.88;;;;;;;;;;4992817;28;20204;-78
2023/05/12 03:12:12;;;;;;;1.73;1.63;;;;;;;;;;4995870;28;20694;-79
2023/05/12 03:14:39;;;;;;;1.83;1.23;;;;;;;;;;4996520;28;20290;-78
2023/05/12 03:17:07;;;;;;;1.73;1.63;;;;;;;;;;4996384;28;20607;-79
2023/05/12 03:19:34;;;;;;;2.22;2.13;;;;;;;;;;4996339;28;20207;-79
2023/05/12 03:22:02;;;;;;;1.67;1.58;;;;;;;;;;4996830;28;20238;-79
2023/05/12 03:24:29;;;;;;;2.28;2.17;;;;;;;;;;4996344;28;20294;-80
2023/05/12 03:26:59;;;;;;;2.20;1.95;;;;;;;;;;4996607;28;20220;-78
2023/05/12 03:29:26;;;;;;;1.90;1.80;;;;;;;;;;4995913;28;20258;-78
2023/05/12 03:31:54;;;;;;;2.35;1.70;;;;;;;;;;4996103;28;20615;-79
2023/05/12 03:34:21;;;;;;;1.65;1.55;;;;;;;;;;4996515;28;20207;-77
2023/05/12 03:36:48;;;;;;;1.80;1.70;;;;;;;;;;4996439;28;20318;-79
2023/05/12 03:39:16;;;;;;;1.63;1.52;;;;;;;;;;4996660;28;20580;-79
2023/05/12 03:41:43;;;;;;;2.13;1.73;;;;;;;;;;4995998;28;20235;-79
2023/05/12 03:44:12;;;;;;;2.17;2.00;;;;;;;;;;4996285;28;20672;-79
2023/05/12 03:46:39;;;;;;;1.90;1.80;;;;;;;;;;4996398;28;20238;-78
2023/05/12 03:49:07;;;;;;;1.60;1.50;;;;;;;;;;4996145;28;20219;-80
2023/05/12 03:51:34;;;;;;;1.77;1.67;;;;;;;;;;4996285;28;20581;-80
2023/05/12 03:54:02;;;;;;;1.70;1.60;;;;;;;;;;4996372;28;20203;-80
2023/05/12 03:56:29;;;;;;;4.45;1.88;;;;;;;;;;4995894;28;20238;-78
2023/05/12 03:58:58;;;;;;;1.70;1.60;;;;;;;;;;4996038;28;20207;-79
2023/05/12 04:01:27;;;;;;;2.55;1.83;;;;;;;;;;4996768;28;20199;-80
2023/05/12 04:03:54;;;;;;;1.50;1.40;;;;;;;;;;4996047;28;20238;-79
2023/05/12 04:06:21;;;;;;;1.85;1.75;;;;;;;;;;4995093;28;20223;-79
2023/05/12 04:08:49;;;;;;;2.25;1.83;;;;;;;;;;4995713;28;20318;-79
2023/05/12 04:11:16;;;;;;;3.55;2.03;;;;;;;;;;4995939;28;20684;-79
2023/05/12 04:13:44;;;;;;;2.38;2.17;;;;;;;;;;4995716;28;20291;-78
2023/05/12 04:16:11;;;;;;;2.00;1.90;;;;;;;;;;4997062;28;20224;-79
2023/05/12 04:18:40;;;;;;;1.60;1.50;;;;;;;;;;5014916;28;20709;-79
2023/05/12 04:21:07;;;;;;;1.95;1.85;;;;;;;;;;5015272;28;20213;-79
2023/05/12 04:23:35;;;;;;;1.80;1.60;;;;;;;;;;5013789;28;20295;-78
2023/05/12 04:26:04;;;;;;;1.70;1.60;;;;;;;;;;5014705;28;20245;-78
2023/05/12 04:28:32;;;;;;;1.95;1.85;;;;;;;;;;5014636;28;20718;-79
2023/05/12 04:31:03;;;;;;;1.83;1.73;;;;;;;;;;5014738;28;20205;-79
2023/05/12 04:33:31;;;;;;;1.75;1.65;;;;;;;;;;5015402;28;20206;-79
2023/05/12 04:36:00;;;;;;;1.23;1.23;;;;;;;;;;5014750;28;20255;-80
2023/05/12 04:38:27;;;;;;;1.63;1.52;;;;;;;;;;4996412;28;20265;-79
2023/05/12 04:40:59;;;;;;;1.25;1.25;;;;;;;;;;4995333;28;20210;-79
2023/05/12 04:43:26;;;;;;;1.88;1.70;;;;;;;;;;4995188;28;20196;-78
2023/05/12 04:45:54;;;;;;;1.33;1.27;;;;;;;;;;4995285;28;20227;-78
2023/05/12 04:48:21;;;;;;;1.65;1.50;;;;;;;;;;4994661;28;20619;-80
2023/05/12 04:50:49;;;;;;;2.28;1.88;;;;;;;;;;4994986;28;20620;-79
2023/05/12 04:53:18;;;;;;;1.52;1.42;;;;;;;;;;4995445;28;20295;-79
2023/05/12 04:55:46;;;;;;;1.48;1.38;;;;;;;;;;4994899;28;20234;-79
2023/05/12 04:58:13;;;;;;;1.48;1.38;;;;;;;;;;4994599;28;20694;-80
2023/05/12 05:00:41;;;;;;;1.58;1.48;;;;;;;;;;4994502;28;20203;-77
2023/05/12 05:03:08;;;;;;;1.83;1.60;;;;;;;;;;4994375;28;20294;-79
2023/05/12 05:05:36;;;;;;;1.70;1.60;;;;;;;;;;4993980;28;20290;-77
2023/05/12 05:08:03;;;;;;;2.25;2.05;;;;;;;;;;4994786;28;20214;-78
2023/05/12 05:10:32;;;;;;;1.50;1.40;;;;;;;;;;4996377;28;20719;-80
2023/05/12 05:13:00;;;;;;;1.63;1.52;;;;;;;;;;4994948;28;20672;-80
2023/05/12 05:15:27;;;;;;;1.88;1.77;;;;;;;;;;4995002;28;20206;-78
2023/05/12 05:17:55;;;;;;;1.80;1.70;;;;;;;;;;4995373;28;20214;-81
2023/05/12 05:20:22;;;;;;;5.03;2.15;;;;;;;;;;4995166;28;20691;-81
2023/05/12 05:22:50;;;;;;;1.77;1.67;;;;;;;;;;4994584;28;20303;-79
2023/05/12 05:25:17;;;;;;;2.28;2.08;;;;;;;;;;4994365;28;20204;-80
2023/05/12 05:27:46;;;;;;;1.70;1.60;;;;;;;;;;4994406;28;20290;-80
2023/05/12 05:30:14;;;;;;;1.67;1.58;;;;;;;;;;4994795;28;20234;-80
2023/05/12 05:32:41;;;;;;;1.75;1.65;;;;;;;;;;4994970;28;20204;-80
2023/05/12 05:35:09;;;;;;;2.10;2.00;;;;;;;;;;4994231;28;20672;-80
2023/05/12 05:37:37;;;;;;;2.05;1.85;;;;;;;;;;4994247;28;20227;-79
2023/05/12 05:40:06;;;;;;;2.28;2.17;;;;;;;;;;4994142;28;20199;-78
2023/05/12 05:42:33;;;;;;;2.45;2.28;;;;;;;;;;4994504;28;20668;-79
2023/05/12 05:45:02;;;;;;;1.60;1.50;;;;;;;;;;4994329;28;20204;-80
2023/05/12 05:47:30;;;;;;;1.80;1.70;;;;;;;;;;5005668;28;20744;-79
2023/05/12 05:49:58;;;;;;;2.15;2.00;;;;;;;;;;5013271;28;20740;-80
2023/05/12 05:52:25;;;;;;;1.70;1.60;;;;;;;;;;5013698;28;20199;-80
2023/05/12 05:54:53;;;;;;;1.40;1.30;;;;;;;;;;5014900;28;20595;-80
2023/05/12 05:57:20;;;;;;;1.60;1.50;;;;;;;;;;5015406;28;20265;-81
2023/05/12 05:59:48;;;;;;;1.50;1.48;;;;;;;;;;5014821;28;20199;-80
2023/05/12 06:02:17;;;;;;;1.88;1.77;;;;;;;;;;5015028;28;20298;-82
2023/05/12 06:04:44;;;;;;;2.15;2.05;;;;;;;;;;5014571;28;20208;-81
2023/05/12 06:07:12;;;;;;;2.45;2.25;;;;;;;;;;5006860;28;20251;-80
2023/05/12 06:09:39;;;;;;;2.20;2.05;;;;;;;;;;4995575;28;20228;-81
2023/05/12 06:12:08;;;;;;;2.25;2.10;;;;;;;;;;4995607;28;20751;-81
2023/05/12 06:14:35;;;;;;;1.85;1.75;;;;;;;;;;4995021;28;20225;-81
2023/05/12 06:17:03;;;;;;;2.13;2.03;;;;;;;;;;4995019;28;20234;-82
2023/05/12 06:19:31;;;;;;;2.10;1.98;;;;;;;;;;4995259;28;20210;-81
2023/05/12 06:21:59;;;;;;;2.42;2.22;;;;;;;;;;4995326;28;20208;-80
2023/05/12 06:24:26;;;;;;;1.88;1.77;;;;;;;;;;4994973;28;20203;-80
2023/05/12 06:26:54;;;;;;;1.65;1.55;;;;;;;;;;4995092;28;20231;-81
2023/05/12 06:29:21;;;;;;;1.75;1.65;;;;;;;;;;4994383;28;20235;-81
2023/05/12 06:31:49;;;;;;;1.92;1.80;;;;;;;;;;4995402;28;20204;-80
2023/05/12 06:34:16;;;;;;;1.92;1.83;;;;;;;;;;4995357;28;20668;-81
2023/05/12 06:36:45;;;;;;;1.70;1.60;;;;;;;;;;4995137;28;20228;-81
2023/05/12 06:39:12;;;;;;;2.40;1.83;;;;;;;;;;4994615;28;20210;-80
2023/05/12 06:41:40;;;;;;;1.98;1.88;;;;;;;;;;4995357;28;20243;-80
2023/05/12 06:44:11;;;;;;;2.35;1.63;;;;;;;;;;4994874;28;20670;-81
2023/05/12 06:46:39;;;;;;;1.88;1.77;;;;;;;;;;4999266;28;20318;-81
2023/05/12 06:49:07;;;;;;;1.98;1.88;;;;;;;;;;5001346;28;20199;-82
2023/05/12 06:51:35;;;;;;;1.60;1.50;;;;;;;;;;5001188;28;20325;-81
2023/05/12 06:54:04;;;;;;;2.08;1.92;;;;;;;;;;5001539;28;20207;-82
2023/05/12 06:56:32;;;;;;;1.80;1.70;;;;;;;;;;5000967;28;20230;-82
2023/05/12 06:59:01;;;;;;;1.85;1.75;;;;;;;;;;5001054;28;20208;-81
2023/05/12 07:01:29;;;;;;;1.67;1.58;;;;;;;;;;5001292;28;20568;-82
2023/05/12 07:03:57;;;;;;;1.35;1.30;;;;;;;;;;5001792;28;20199;-81
2023/05/12 07:06:26;;;;;;;2.53;1.67;;;;;;;;;;5000743;28;20219;-81
2023/05/12 07:08:54;;;;;;;4.85;2.00;;;;;;;;;;5001129;28;20211;-81
2023/05/12 07:11:23;;;;;;;2.00;1.50;;;;;;;;;;5001034;28;20255;-82
2023/05/12 07:13:51;;;;;;;1.52;1.42;;;;;;;;;;5001522;28;20291;-81
2023/05/12 07:16:20;;;;;;;2.03;1.92;;;;;;;;;;5000782;28;20225;-82
2023/05/12 07:18:47;;;;;;;2.22;2.13;;;;;;;;;;5000971;28;20207;-82
2023/05/12 07:21:15;;;;;;;2.17;2.08;;;;;;;;;;5001098;28;20211;-82
2023/05/12 07:23:42;;;;;;;1.63;1.52;;;;;;;;;;5000673;28;20294;-81
2023/05/12 07:26:10;;;;;;;2.00;1.90;;;;;;;;;;5001606;28;20233;-81
2023/05/12 07:28:39;;;;;;;9.43;2.35;;;;;;;;;;5001803;28;20207;-82
2023/05/12 07:31:07;;;;;;;1.73;1.63;;;;;;;;;;5000991;28;20223;-82
2023/05/12 07:33:36;;;;;;;3.30;2.30;;;;;;;;;;5001174;28;20214;-82
2023/05/12 07:36:04;;;;;;;2.38;2.13;;;;;;;;;;5001234;28;20301;-82
2023/05/12 07:38:32;;;;;;;3.83;1.90;;;;;;;;;;5001511;28;20211;-83
2023/05/12 07:41:00;;;;;;;1.90;1.80;;;;;;;;;;5001510;28;20210;-84
2023/05/12 07:43:27;;;;;;;2.17;1.98;;;;;;;;;;5000862;28;20203;-82
2023/05/12 07:45:58;;;;;;;1.27;1.27;;;;;;;;;;5001497;28;20315;-82
2023/05/12 07:48:25;;;;;;;1.70;1.60;;;;;;;;;;5001429;28;20676;-82
2023/05/12 07:50:53;;;;;;;2.53;2.33;;;;;;;;;;4999396;28;20235;-80
2023/05/12 07:53:20;;;;;;;2.10;2.00;;;;;;;;;;4999116;28;20571;-82
2023/05/12 07:55:48;;;;;;;2.28;2.08;;;;;;;;;;4998918;28;20220;-82
2023/05/12 07:58:15;;;;;;;1.50;1.40;;;;;;;;;;4996181;28;20302;-81
2023/05/12 08:00:43;;;;;;;1.65;1.55;;;;;;;;;;4996481;28;20566;-82
2023/05/12 08:03:12;;;;;;;1.98;1.88;;;;;;;;;;4996626;28;20668;-82
2023/05/12 08:05:40;;;;;;;1.67;1.58;;;;;;;;;;4995640;28;20333;-82
2023/05/12 08:08:11;;;;;;;2.90;2.60;;;;;;;;;;4995960;28;20213;-82
2023/05/12 08:10:38;;;;;;;3.20;2.10;;;;;;;;;;4995789;28;20223;-82
2023/05/12 08:13:06;;;;;;;2.65;1.63;;;;;;;;;;4995738;28;20294;-83
2023/05/12 08:15:33;;;;;;;1.42;1.33;;;;;;;;;;4995770;28;20214;-82
2023/05/12 08:18:01;;;;;;;1.67;1.58;;;;;;;;;;5011450;28;20300;-82
2023/05/12 08:20:30;;;;;;;1.90;1.80;;;;;;;;;;5015160;28;20199;-84
2023/05/12 08:22:57;;;;;;;1.63;1.52;;;;;;;;;;5015437;28;20246;-82
2023/05/12 08:25:26;;;;;;;1.83;1.73;;;;;;;;;;5015191;28;20294;-82
2023/05/12 08:27:54;;;;;;;1.90;1.80;;;;;;;;;;5014625;28;20780;-82
2023/05/12 08:30:21;;;;;;;1.77;1.67;;;;;;;;;;5015296;28;20193;-82
2023/05/12 08:32:49;;;;;;;2.10;1.92;;;;;;;;;;5015171;28;20223;-82
2023/05/12 08:35:16;;;;;;;4.32;2.20;;;;;;;;;;5014854;28;20621;-82
2023/05/12 08:37:45;;;;;;;1.98;1.88;;;;;;;;;;5002850;28;20234;-83
2023/05/12 08:40:18;;;;;;;2.00;1.60;;;;;;;;;;4995886;28;20203;-83
2023/05/12 08:42:54;;;;;;;1.70;1.60;;;;;;;;;;4995691;28;20664;-82
2023/05/12 08:45:22;;;;;;;1.40;1.30;;;;;;;;;;4995954;28;20294;-83
2023/05/12 08:47:50;;;;;;;1.58;1.48;;;;;;;;;;4995307;28;20682;-84
2023/05/12 08:50:19;;;;;;;5.45;2.47;;;;;;;;;;4996643;28;20270;-84
2023/05/12 08:52:48;;;;;;;2.53;2.05;;;;;;;;;;4997430;28;20238;-83
2023/05/12 08:55:15;;;;;;;2.03;1.92;;;;;;;;;;4997987;28;20290;-83
2023/05/12 08:57:47;;;;;;;2.20;2.00;;;;;;;;;;4997309;28;20570;-85
2023/05/12 09:00:15;;;;;;;1.92;1.83;;;;;;;;;;4997105;28;20564;-84
2023/05/12 09:02:44;;;;;;;1.80;1.70;;;;;;;;;;4997353;28;20210;-84
2023/05/12 09:05:11;;;;;;;2.10;2.00;;;;;;;;;;4997702;28;20214;-82
2023/05/12 09:07:43;;;;;;;2.50;2.28;;;;;;;;;;4996713;28;20322;-83
2023/05/12 09:10:17;;;;;;;2.17;2.08;;;;;;;;;;4996615;28;20208;-83
2023/05/12 09:12:47;;;;;;;2.10;1.90;;;;;;;;;;4996778;28;20311;-83
2023/05/12 09:15:20;;;;;;;2.25;2.05;;;;;;;;;;4996927;28;20204;-83
2023/05/12 09:17:47;;;;;;;2.67;2.47;;;;;;;;;;5000765;28;20302;-84
2023/05/12 09:20:16;;;;;;;2.65;2.45;;;;;;;;;;4998612;28;20296;-83
2023/05/12 09:22:43;;;;;;;2.47;2.13;;;;;;;;;;4997590;28;20299;-84
2023/05/12 09:25:20;;;;;;;1.80;1.70;;;;;;;;;;4996861;28;20282;-83
2023/05/12 09:27:49;;;;;;;2.10;1.90;;;;;;;;;;4996253;28;20695;-84
2023/05/12 09:30:16;;;;;;;2.15;2.05;;;;;;;;;;4996708;28;20656;-83
2023/05/12 09:32:44;;;;;;;2.22;2.03;;;;;;;;;;4996721;28;20223;-83
2023/05/12 09:35:12;;;;;;;2.38;2.28;;;;;;;;;;4996774;28;20469;-83
2023/05/12 09:37:40;;;;;;;2.65;2.45;;;;;;;;;;4996650;28;20277;-83
2023/05/12 09:40:10;;;;;;;2.47;2.28;;;;;;;;;;4996453;28;20203;-83
2023/05/12 09:42:39;;;;;;;3.00;2.80;;;;;;;;;;4996720;28;20295;-83
2023/05/12 09:45:09;;;;;;;3.10;2.90;;;;;;;;;;4995911;28;20203;-83
2023/05/12 09:47:38;;;;;;;2.05;1.95;;;;;;;;;;4996668;28;20231;-85
2023/05/12 09:50:08;;;;;;;2.35;2.25;;;;;;;;;;4996062;28;20200;-84
2023/05/12 09:52:39;;;;;;;1.50;1.40;;;;;;;;;;4996347;28;20318;-82
2023/05/12 09:55:09;;;;;;;2.15;2.05;;;;;;;;;;4996705;28;20310;-83
2023/05/12 09:57:41;;;;;;;4.28;2.40;;;;;;;;;;4996646;28;20654;-86
2023/05/12 10:00:12;;;;;;;1.90;1.80;;;;;;;;;;4996449;28;20290;-84
2023/05/12 10:02:42;;;;;;;2.85;2.60;;;;;;;;;;4995472;28;20258;-85
2023/05/12 10:05:15;;;;;;;4.03;2.08;;;;;;;;;;4996000;28;20295;-83
2023/05/12 10:07:45;;;;;;;1.90;1.80;;;;;;;;;;4995483;28;20598;-83
2023/05/12 10:10:18;;;;;;;2.20;2.00;;;;;;;;;;4995655;28;20200;-82
2023/05/12 10:12:47;;;;;;;2.63;2.42;;;;;;;;;;4996234;28;20227;-83
2023/05/12 10:15:15;;;;;;;3.85;2.05;;;;;;;;;;4995308;28;20204;-83
2023/05/12 10:17:43;;;;;;;1.90;1.80;;;;;;;;;;4994757;28;20787;-83
2023/05/12 10:20:11;;;;;;;2.25;2.00;;;;;;;;;;4994935;28;20291;-83
2023/05/12 10:22:40;;;;;;;2.75;2.50;;;;;;;;;;4994630;28;20804;-81
2023/05/12 10:25:08;;;;;;;11.55;3.95;;;;;;;;;;4995600;28;20718;-82
2023/05/12 10:27:36;;;;;;;3.15;2.88;;;;;;;;;;4994916;28;20246;-83
2023/05/12 10:30:08;;;;;;;3.15;2.85;;;;;;;;;;4995641;28;20283;-82
2023/05/12 10:32:35;;;;;;;2.80;2.60;;;;;;;;;;4994215;28;20703;-84
2023/05/12 10:35:14;;;;;;;2.30;2.20;;;;;;;;;;4994998;28;20199;-85
2023/05/12 10:37:43;;;;;;;3.00;2.08;;;;;;;;;;4993867;28;20322;-84
2023/05/12 10:40:11;;;;;;;2.75;2.55;;;;;;;;;;4994575;28;20211;-84
2023/05/12 10:42:41;;;;;;;2.63;2.45;;;;;;;;;;4994528;28;20671;-84
2023/05/12 10:45:18;;;;;;;2.45;2.30;;;;;;;;;;4994896;28;20200;-84
2023/05/12 10:47:46;;;;;;;2.95;2.60;;;;;;;;;;4994239;28;20203;-84
2023/05/12 10:50:14;;;;;;;3.60;2.63;;;;;;;;;;4993977;28;20196;-84
2023/05/12 10:52:52;;;;;;;3.35;2.78;;;;;;;;;;4993556;28;20228;-83
2023/05/12 10:55:32;;;;;;;3.10;2.78;;;;;;;;;;4993800;28;20211;-83
2023/05/12 10:58:11;;;;;;;3.30;2.50;;;;;;;;;;4993740;28;20218;-83
2023/05/12 11:00:49;;;;;;;2.95;2.70;;;;;;;;;;4993060;28;20211;-84
2023/05/12 11:03:23;;;;;;;2.92;2.42;;;;;;;;;;4993482;28;20204;-83
2023/05/12 11:06:00;;;;;;;3.08;2.78;;;;;;;;;;4993153;28;20223;-83
2023/05/12 11:08:27;;;;;;;2.92;2.72;;;;;;;;;;4993332;28;20207;-82
2023/05/12 11:10:55;;;;;;;3.08;2.75;;;;;;;;;;4992955;28;20214;-83
2023/05/12 11:13:22;;;;;;;2.20;2.10;;;;;;;;;;4993540;28;20227;-83
2023/05/12 11:15:51;;;;;;;2.97;2.78;;;;;;;;;;4993689;28;20656;-83
2023/05/12 11:18:22;;;;;;;2.53;2.33;;;;;;;;;;4992740;28;20298;-83
2023/05/12 11:20:50;;;;;;;3.17;2.97;;;;;;;;;;4992728;28;20246;-82
2023/05/12 11:23:28;;;;;;;3.42;3.13;;;;;;;;;;4992685;28;20286;-83
2023/05/12 11:25:56;;;;;;;2.17;2.08;;;;;;;;;;4992659;28;20219;-82
2023/05/12 11:28:23;;;;;;;2.92;2.63;;;;;;;;;;4992154;28;20238;-83
2023/05/12 11:30:53;;;;;;;2.50;2.30;;;;;;;;;;4992336;28;20210;-83
2023/05/12 11:33:21;;;;;;;2.80;2.60;;;;;;;;;;4995902;28;20224;-83
2023/05/12 11:35:49;;;;;;;3.30;3.08;;;;;;;;;;4996487;28;20224;-82
2023/05/12 11:38:18;;;;;;;3.15;2.20;;;;;;;;;;4996363;28;20212;-82
2023/05/12 11:40:46;;;;;;;2.78;2.58;;;;;;;;;;4996514;28;20200;-81
2023/05/12 11:43:14;;;;;;;2.95;2.70;;;;;;;;;;4996581;28;20292;-82
2023/05/12 11:45:42;;;;;;;3.35;3.05;;;;;;;;;;4996300;28;20262;-81
2023/05/12 11:48:13;;;;;;;3.17;2.42;;;;;;;;;;5013367;28;20203;-81
2023/05/12 11:50:43;;;;;;;4.30;3.25;;;;;;;;;;5016185;28;20719;-82
2023/05/12 11:53:13;;;;;;;3.35;3.03;;;;;;;;;;5017278;28;20604;-82
2023/05/12 11:55:49;;;;;;;2.63;2.42;;;;;;;;;;5016549;28;20217;-83
2023/05/12 11:58:21;;;;;;;2.83;2.63;;;;;;;;;;5016567;28;20210;-81
2023/05/12 12:00:49;;;;;;;2.95;2.75;;;;;;;;;;5018186;28;20203;-82
2023/05/12 12:03:18;;;;;;;2.78;2.58;;;;;;;;;;5017714;28;20525;-83
2023/05/12 12:05:58;;;;;;;4.45;3.40;;;;;;;;;;5017833;28;20306;-81
2023/05/12 12:08:25;;;;;;;2.60;2.40;;;;;;;;;;4999745;28;20211;-82
2023/05/12 12:10:53;;;;;;;3.10;2.85;;;;;;;;;;4997441;28;20560;-82
2023/05/12 12:13:21;;;;;;;3.03;2.35;;;;;;;;;;4997109;28;20314;-82
2023/05/12 12:15:48;;;;;;;3.70;2.70;;;;;;;;;;4997349;28;20231;-82
2023/05/12 12:18:18;;;;;;;3.03;2.70;;;;;;;;;;4996972;28;20298;-81
2023/05/12 12:20:46;;;;;;;2.60;2.35;;;;;;;;;;4997575;28;20226;-83
2023/05/12 12:23:13;;;;;;;2.50;2.30;;;;;;;;;;4997046;28;20202;-82
2023/05/12 12:25:42;;;;;;;3.55;3.17;;;;;;;;;;4995816;28;20354;-83
2023/05/12 12:28:09;;;;;;;5.63;3.35;;;;;;;;;;4996044;28;20218;-80
2023/05/12 12:30:37;;;;;;;4.05;2.63;;;;;;;;;;4996351;28;20210;-81
2023/05/12 12:33:04;;;;;;;4.88;3.10;;;;;;;;;;4996111;28;20208;-81
2023/05/12 12:35:33;;;;;;;5.32;3.13;;;;;;;;;;4995786;28;20470;-80
2023/05/12 12:38:01;;;;;;;4.55;3.72;;;;;;;;;;4995948;28;20218;-80
2023/05/12 12:40:28;;;;;;;3.97;3.00;;;;;;;;;;4996297;28;20212;-83
2023/05/12 12:42:56;;;;;;;2.70;2.50;;;;;;;;;;4996908;28;20294;-82
2023/05/12 12:45:23;;;;;;;2.70;2.38;;;;;;;;;;4997516;28;20371;-82
2023/05/12 12:47:53;;;;;;;2.70;2.50;;;;;;;;;;4996393;28;20298;-83
2023/05/12 12:50:21;;;;;;;2.78;2.58;;;;;;;;;;4996751;28;20668;-82
2023/05/12 12:52:50;;;;;;;2.83;2.58;;;;;;;;;;4996214;28;20664;-81
2023/05/12 12:55:18;;;;;;;7.88;2.97;;;;;;;;;;4996860;28;20263;-81
2023/05/12 12:57:45;;;;;;;2.60;2.40;;;;;;;;;;4995860;28;20223;-81
2023/05/12 13:00:14;;;;;;;3.03;2.72;;;;;;;;;;4995363;28;20214;-83
2023/05/12 13:02:42;;;;;;;2.95;2.75;;;;;;;;;;4995907;28;20199;-81
2023/05/12 13:05:09;;;;;;;3.00;2.80;;;;;;;;;;4995897;28;20203;-82
2023/05/12 13:07:37;;;;;;;2.30;2.10;;;;;;;;;;4994683;28;20224;-82
2023/05/12 13:10:08;;;;;;;3.45;3.10;;;;;;;;;;5012771;28;20281;-81
2023/05/12 13:12:35;;;;;;;2.50;2.30;;;;;;;;;;5024348;28;20591;-82
2023/05/12 13:15:03;;;;;;;2.60;2.40;;;;;;;;;;5015398;28;20233;-81
2023/05/12 13:17:30;;;;;;;3.22;2.60;;;;;;;;;;5002920;28;20228;-82
2023/05/12 13:19:58;;;;;;;2.17;2.00;;;;;;;;;;4995192;28;20200;-82
2023/05/12 13:22:26;;;;;;;2.15;1.98;;;;;;;;;;4995763;28;20254;-82
2023/05/12 13:24:53;;;;;;;3.60;2.83;;;;;;;;;;4997055;28;20646;-82
2023/05/12 13:27:22;;;;;;;2.45;2.28;;;;;;;;;;4996942;28;20314;-82
2023/05/12 13:29:50;;;;;;;2.20;2.03;;;;;;;;;;4996940;28;20306;-82
2023/05/12 13:32:19;;;;;;;2.38;2.17;;;;;;;;;;4996992;28;20548;-81
2023/05/12 13:34:47;;;;;;;2.67;2.42;;;;;;;;;;4995541;28;20224;-80
2023/05/12 13:37:14;;;;;;;2.60;2.40;;;;;;;;;;4996111;28;20595;-83
2023/05/12 13:39:42;;;;;;;3.38;2.55;;;;;;;;;;4996055;28;20211;-83
2023/05/12 13:42:09;;;;;;;2.30;2.20;;;;;;;;;;4996178;28;20290;-82
2023/05/12 13:44:38;;;;;;;3.05;2.60;;;;;;;;;;4996387;28;20250;-82
2023/05/12 13:47:06;;;;;;;2.88;2.67;;;;;;;;;;4995597;28;20306;-83
2023/05/12 13:49:34;;;;;;;2.63;2.42;;;;;;;;;;4996331;28;20261;-82
2023/05/12 13:52:01;;;;;;;2.50;2.30;;;;;;;;;;4995653;28;20199;-82
2023/05/12 13:54:32;;;;;;;2.13;2.03;;;;;;;;;;4994724;28;20223;-82
2023/05/12 13:57:02;;;;;;;3.50;2.63;;;;;;;;;;4994991;28;20230;-82
2023/05/12 13:59:30;;;;;;;2.92;2.72;;;;;;;;;;4994455;28;20203;-82
2023/05/12 14:01:59;;;;;;;2.22;2.00;;;;;;;;;;4995197;28;20230;-83
2023/05/12 14:04:27;;;;;;;2.33;1.83;;;;;;;;;;4994543;28;20570;-82
2023/05/12 14:06:54;;;;;;;2.08;1.73;;;;;;;;;;4994463;28;20230;-81
2023/05/12 14:09:22;;;;;;;3.47;1.50;;;;;;;;;;4994487;28;20207;-83
2023/05/12 14:11:49;;;;;;;2.30;2.10;;;;;;;;;;4995136;28;20231;-83
2023/05/12 14:14:16;;;;;;;2.13;1.90;;;;;;;;;;4994910;28;20234;-82
2023/05/12 14:16:44;;;;;;;1.90;1.80;;;;;;;;;;4994173;28;20238;-83
2023/05/12 14:19:13;;;;;;;2.67;2.47;;;;;;;;;;4994682;28;20210;-82
2023/05/12 14:21:40;;;;;;;2.08;1.98;;;;;;;;;;4993946;28;20885;-80
2023/05/12 14:24:09;;;;;;;2.05;1.80;;;;;;;;;;4994203;28;20299;-82
2023/05/12 14:26:36;;;;;;;2.35;2.15;;;;;;;;;;4994196;28;20220;-82
2023/05/12 14:29:03;;;;;;;2.58;2.22;;;;;;;;;;4993759;28;20215;-79
2023/05/12 14:31:31;;;;;;;2.65;2.45;;;;;;;;;;4993281;28;20282;-81
2023/05/12 14:33:59;;;;;;;2.92;2.72;;;;;;;;;;4994297;28;20211;-81
2023/05/12 14:36:27;;;;;;;2.90;2.70;;;;;;;;;;4993380;28;20236;-81
2023/05/12 14:38:55;;;;;;;2.20;2.10;;;;;;;;;;4994131;28;20271;-82
2023/05/12 14:41:23;;;;;;;2.95;1.90;;;;;;;;;;4993987;28;20267;-82
2023/05/12 14:43:50;;;;;;;2.58;2.08;;;;;;;;;;4994464;28;20245;-81
2023/05/12 14:46:18;;;;;;;3.65;2.53;;;;;;;;;;4993773;28;20219;-83
2023/05/12 14:48:46;;;;;;;2.20;2.10;;;;;;;;;;4993982;28;20235;-83
2023/05/12 14:51:13;;;;;;;3.67;2.63;;;;;;;;;;4993720;28;20584;-82